createdAt,value
2023-01-21T00:01:21.188Z,-0.80
2023-01-21T00:03:49.652Z,-0.90
2023-01-21T00:06:18.393Z,-0.90
2023-01-21T00:08:48.114Z,-0.90
2023-01-21T00:11:17.320Z,-0.90
2023-01-21T00:13:45.995Z,-1.00
2023-01-21T00:16:14.886Z,-1.00
2023-01-21T00:18:43.331Z,-1.00
2023-01-21T00:21:11.903Z,-1.00
2023-01-21T00:23:40.293Z,-1.00
2023-01-21T00:26:12.850Z,-1.00
2023-01-21T00:28:43.689Z,-0.90
2023-01-21T00:31:13.101Z,-1.10
2023-01-21T00:33:41.448Z,-1.00
2023-01-21T00:36:18.452Z,-0.90
2023-01-21T00:38:49.457Z,-0.90
2023-01-21T00:41:19.234Z,-0.90
2023-01-21T00:43:47.453Z,-0.90
2023-01-21T00:46:15.721Z,-0.80
2023-01-21T00:48:44.002Z,-1.00
2023-01-21T00:51:12.577Z,-0.90
2023-01-21T00:53:42.925Z,-0.90
2023-01-21T00:56:13.914Z,-0.80
2023-01-21T00:58:44.492Z,-0.90
2023-01-21T01:01:15.359Z,-0.80
2023-01-21T01:03:44.164Z,-0.90
2023-01-21T01:06:15.023Z,-0.80
2023-01-21T01:08:43.753Z,-0.80
2023-01-21T01:11:13.155Z,-0.80
2023-01-21T01:13:43.355Z,-0.80
2023-01-21T01:16:14.883Z,-0.80
2023-01-21T01:18:43.114Z,-0.80
2023-01-21T01:21:14.191Z,-0.40
2023-01-21T01:23:43.405Z,-0.70
2023-01-21T01:26:13.774Z,-0.70
2023-01-21T01:28:43.739Z,-0.70
2023-01-21T01:31:14.744Z,-0.70
2023-01-21T01:33:43.192Z,-0.70
2023-01-21T01:36:14.522Z,-0.70
2023-01-21T01:38:42.954Z,-0.60
2023-01-21T01:41:17.251Z,-0.50
2023-01-21T01:43:57.440Z,-0.60
2023-01-21T01:46:27.449Z,-0.50
2023-01-21T01:49:02.141Z,-0.50
2023-01-21T01:51:36.003Z,-0.60
2023-01-21T01:54:05.845Z,-0.50
2023-01-21T01:56:34.458Z,-0.50
2023-01-21T01:59:04.364Z,-0.40
2023-01-21T02:01:32.637Z,-0.50
2023-01-21T02:04:02.419Z,-0.40
2023-01-21T02:06:30.645Z,-0.40
2023-01-21T02:08:58.827Z,-0.40
2023-01-21T02:11:27.254Z,-0.40
2023-01-21T02:13:58.772Z,-0.50
2023-01-21T02:16:49.536Z,-0.50
2023-01-21T02:19:43.613Z,-0.50
2023-01-21T02:22:22.739Z,-0.60
2023-01-21T02:25:29.746Z,-0.60
2023-01-21T02:28:21.078Z,-0.70
2023-01-21T02:31:05.581Z,-0.70
2023-01-21T02:33:45.777Z,-0.70
2023-01-21T02:36:28.136Z,-0.70
2023-01-21T02:39:03.587Z,-0.70
2023-01-21T02:41:43.615Z,-0.70
2023-01-21T02:44:18.554Z,-0.70
2023-01-21T02:46:51.949Z,-0.70
2023-01-21T02:49:26.834Z,-0.70
2023-01-21T02:51:55.114Z,-0.70
2023-01-21T02:54:52.228Z,-0.70
2023-01-21T02:57:41.033Z,-0.70
2023-01-21T03:00:14.435Z,-0.70
2023-01-21T03:03:17.425Z,-0.70
2023-01-21T03:06:10.177Z,-0.80
2023-01-21T03:08:46.951Z,-0.80
2023-01-21T03:11:17.926Z,-0.90
2023-01-21T03:14:09.895Z,-1.00
2023-01-21T03:17:00.351Z,-1.00
2023-01-21T03:19:36.145Z,-1.00
2023-01-21T03:22:11.291Z,-1.00
2023-01-21T03:24:41.670Z,-1.00
2023-01-21T03:27:13.306Z,-1.10
2023-01-21T03:29:42.352Z,-1.10
2023-01-21T03:32:15.265Z,-1.10
2023-01-21T03:34:49.663Z,-1.10
2023-01-21T03:37:26.381Z,-1.20
2023-01-21T03:40:06.425Z,-1.20
2023-01-21T03:42:35.259Z,-1.20
2023-01-21T03:45:03.808Z,-1.30
2023-01-21T03:47:35.639Z,-1.20
2023-01-21T03:50:09.378Z,-1.30
2023-01-21T03:52:41.482Z,-1.30
2023-01-21T03:55:11.309Z,-1.30
2023-01-21T03:57:39.799Z,-1.30
2023-01-21T04:00:09.574Z,-1.20
2023-01-21T04:02:37.902Z,-1.20
2023-01-21T04:05:06.799Z,-1.20
2023-01-21T04:07:35.118Z,-1.20
2023-01-21T04:10:05.077Z,-1.10
2023-01-21T04:12:33.539Z,-1.10
2023-01-21T04:15:04.190Z,-1.00
2023-01-21T04:17:33.623Z,-0.90
2023-01-21T04:20:01.860Z,-0.90
2023-01-21T04:22:30.138Z,-0.90
2023-01-21T04:24:58.414Z,-0.90
2023-01-21T04:27:28.065Z,-0.90
2023-01-21T04:29:56.271Z,-0.80
2023-01-21T04:32:24.532Z,-0.80
2023-01-21T04:34:52.895Z,-0.80
2023-01-21T04:37:21.463Z,-0.80
2023-01-21T04:39:49.782Z,-0.90
2023-01-21T04:42:18.305Z,-0.80
2023-01-21T04:44:48.014Z,-1.00
2023-01-21T04:47:16.396Z,-0.90
2023-01-21T04:49:44.801Z,-1.00
2023-01-21T04:52:13.082Z,-1.00
2023-01-21T04:54:41.362Z,-1.10
2023-01-21T04:57:10.860Z,-1.20
2023-01-21T04:59:39.135Z,-1.10
2023-01-21T05:02:08.970Z,-1.00
2023-01-21T05:04:37.551Z,-1.00
2023-01-21T05:07:06.040Z,-1.10
2023-01-21T05:09:34.391Z,-1.00
2023-01-21T05:12:02.691Z,-1.00
2023-01-21T05:14:30.943Z,-1.00
2023-01-21T05:16:59.897Z,-1.00
2023-01-21T05:19:29.704Z,-1.10
2023-01-21T05:21:57.930Z,-1.20
2023-01-21T05:24:26.361Z,-1.30
2023-01-21T05:26:54.635Z,-1.20
2023-01-21T05:29:22.877Z,-1.20
2023-01-21T05:31:51.352Z,-1.30
2023-01-21T05:34:19.640Z,-1.40
2023-01-21T05:36:49.364Z,-1.40
2023-01-21T05:39:17.719Z,-1.30
2023-01-21T05:41:45.973Z,-1.50
2023-01-21T05:44:16.027Z,-1.60
2023-01-21T05:46:45.708Z,-1.70
2023-01-21T05:49:14.009Z,-1.70
2023-01-21T05:51:42.384Z,-1.80
2023-01-21T05:54:12.083Z,-1.70
2023-01-21T05:56:40.325Z,-1.80
2023-01-21T05:59:10.057Z,-1.80
2023-01-21T06:01:38.354Z,-1.50
2023-01-21T06:04:06.872Z,-1.50
2023-01-21T06:06:35.269Z,-1.80
2023-01-21T06:09:03.608Z,-1.80
2023-01-21T06:11:33.269Z,-1.80
2023-01-21T06:14:01.641Z,-1.80
2023-01-21T06:16:29.915Z,-1.80
2023-01-21T06:18:58.188Z,-1.90
2023-01-21T06:21:26.606Z,-1.90
2023-01-21T06:23:54.886Z,-1.90
2023-01-21T06:26:23.154Z,-1.90
2023-01-21T06:28:52.904Z,-1.90
2023-01-21T06:31:21.292Z,-1.80
2023-01-21T06:33:49.661Z,-1.90
2023-01-21T06:36:18.001Z,-1.90
2023-01-21T06:38:46.476Z,-1.90
2023-01-21T06:41:14.807Z,-1.90
2023-01-21T06:43:43.104Z,-2.00
2023-01-21T06:46:12.929Z,-1.90
2023-01-21T06:48:43.257Z,-2.00
2023-01-21T06:51:11.528Z,-2.00
2023-01-21T06:53:39.832Z,-2.10
2023-01-21T06:56:08.757Z,-2.10
2023-01-21T06:58:37.037Z,-2.10
2023-01-21T07:01:05.447Z,-2.10
2023-01-21T07:03:35.083Z,-2.10
2023-01-21T07:06:03.341Z,-2.10
2023-01-21T07:08:31.624Z,-2.10
2023-01-21T07:10:59.918Z,-2.10
2023-01-21T07:13:28.179Z,-2.10
2023-01-21T07:16:01.011Z,-2.00
2023-01-21T07:18:29.340Z,-1.90
2023-01-21T07:20:59.121Z,-1.90
2023-01-21T07:23:27.414Z,-1.90
2023-01-21T07:25:55.724Z,-1.80
2023-01-21T07:28:24.085Z,-1.80
2023-01-21T07:30:52.480Z,-1.80
2023-01-21T07:33:20.886Z,-1.70
2023-01-21T07:35:50.087Z,-1.60
2023-01-21T07:38:19.761Z,-1.50
2023-01-21T07:40:49.826Z,-1.60
2023-01-21T07:43:18.400Z,-1.50
2023-01-21T07:45:47.037Z,-1.50
2023-01-21T07:48:15.321Z,-1.40
2023-01-21T07:50:43.612Z,-1.50
2023-01-21T07:53:13.000Z,-1.40
2023-01-21T07:55:42.611Z,-1.30
2023-01-21T07:58:10.855Z,-1.30
2023-01-21T08:00:39.060Z,-1.20
2023-01-21T08:03:07.305Z,-1.10
2023-01-21T08:05:35.610Z,-1.10
2023-01-21T08:08:03.957Z,-1.00
2023-01-21T08:10:32.288Z,-0.80
2023-01-21T08:13:02.274Z,-0.60
2023-01-21T08:15:30.570Z,-0.50
2023-01-21T08:17:58.773Z,-0.50
2023-01-21T08:20:27.122Z,-0.30
2023-01-21T08:22:55.350Z,-0.20
2023-01-21T08:25:23.596Z,-0.10
2023-01-21T08:27:51.890Z,0.10
2023-01-21T08:30:21.718Z,0.30
2023-01-21T08:32:49.960Z,0.40
2023-01-21T08:35:18.640Z,0.50
2023-01-21T08:37:47.067Z,0.80
2023-01-21T08:40:15.474Z,1.00
2023-01-21T08:42:43.666Z,1.10
2023-01-21T08:45:15.147Z,1.10
2023-01-21T08:47:44.823Z,1.10
2023-01-21T08:50:13.206Z,1.10
2023-01-21T08:52:41.409Z,1.20
2023-01-21T08:55:10.692Z,1.40
2023-01-21T08:57:38.865Z,1.50
2023-01-21T09:00:08.140Z,1.70
2023-01-21T09:02:36.361Z,1.80
2023-01-21T09:05:06.889Z,2.20
2023-01-21T09:07:35.139Z,2.40
2023-01-21T09:10:03.391Z,2.40
2023-01-21T09:12:31.574Z,2.40
2023-01-21T09:14:59.788Z,2.30
2023-01-21T09:17:28.570Z,2.30
2023-01-21T09:19:56.834Z,2.10
2023-01-21T09:22:26.479Z,1.90
2023-01-21T09:24:54.696Z,1.80
2023-01-21T09:27:27.323Z,1.60
2023-01-21T09:29:55.915Z,1.50
2023-01-21T09:32:24.083Z,1.40
2023-01-21T09:34:52.322Z,1.40
2023-01-21T09:37:20.488Z,1.40
2023-01-21T09:39:50.108Z,1.40
2023-01-21T09:42:22.225Z,1.50
2023-01-21T09:44:53.476Z,1.60
2023-01-21T09:47:25.718Z,1.80
2023-01-21T09:49:55.827Z,2.20
2023-01-21T09:52:30.964Z,2.40
2023-01-21T09:55:02.429Z,2.70
2023-01-21T09:57:57.309Z,3.10
2023-01-21T10:00:36.458Z,3.60
2023-01-21T10:03:19.555Z,4.50
2023-01-21T10:06:09.448Z,4.80
2023-01-21T10:08:52.390Z,5.10
2023-01-21T10:11:38.290Z,5.00
2023-01-21T10:14:26.617Z,4.80
2023-01-21T10:17:02.657Z,4.50
2023-01-21T10:19:37.120Z,4.20
2023-01-21T10:22:11.259Z,4.00
2023-01-21T10:24:46.190Z,3.90
2023-01-21T10:27:21.437Z,4.10
2023-01-21T10:29:52.978Z,3.90
2023-01-21T10:32:25.585Z,4.60
2023-01-21T10:34:55.852Z,5.20
2023-01-21T10:37:31.852Z,5.50
2023-01-21T10:40:09.623Z,5.90
2023-01-21T10:42:51.359Z,6.50
2023-01-21T10:45:26.901Z,6.90
2023-01-21T10:48:04.744Z,7.10
2023-01-21T10:50:44.172Z,7.60
2023-01-21T10:53:23.289Z,8.10
2023-01-21T10:56:01.794Z,8.60
2023-01-21T10:58:36.890Z,9.30
2023-01-21T11:01:08.984Z,10.00
2023-01-21T11:03:41.526Z,11.10
2023-01-21T11:06:12.509Z,12.10
2023-01-21T11:08:42.348Z,12.60
2023-01-21T11:11:11.503Z,12.60
2023-01-21T11:13:41.764Z,12.30
2023-01-21T11:16:10.103Z,12.50
2023-01-21T11:18:40.725Z,13.00
2023-01-21T11:21:18.713Z,13.80
2023-01-21T11:23:55.892Z,14.60
2023-01-21T11:26:28.676Z,14.80
2023-01-21T11:29:15.367Z,14.40
2023-01-21T11:31:45.664Z,13.80
2023-01-21T11:34:15.954Z,13.10
2023-01-21T11:37:01.310Z,12.50
2023-01-21T11:39:31.411Z,11.60
2023-01-21T11:42:06.936Z,10.60
2023-01-21T11:44:54.700Z,9.70
2023-01-21T11:47:38.864Z,8.80
2023-01-21T11:50:17.849Z,7.60
2023-01-21T11:52:46.333Z,6.70
2023-01-21T11:55:24.074Z,6.10
2023-01-21T11:57:55.631Z,5.60
2023-01-21T12:00:28.155Z,5.20
2023-01-21T12:02:59.385Z,4.90
2023-01-21T12:05:34.665Z,4.70
2023-01-21T12:08:06.089Z,4.20
2023-01-21T12:10:38.246Z,4.00
2023-01-21T12:13:23.119Z,3.80
2023-01-21T12:16:23.842Z,3.50
2023-01-21T12:19:21.060Z,3.40
2023-01-21T12:22:03.082Z,3.30
2023-01-21T12:24:47.941Z,3.00
2023-01-21T12:27:25.311Z,2.90
2023-01-21T12:30:03.381Z,2.90
2023-01-21T12:32:37.372Z,2.90
2023-01-21T12:35:12.471Z,3.10
2023-01-21T12:37:46.949Z,3.20
2023-01-21T12:40:20.463Z,3.30
2023-01-21T12:42:54.272Z,3.30
2023-01-21T12:45:26.417Z,3.30
2023-01-21T12:48:01.480Z,3.30
2023-01-21T12:50:39.777Z,3.20
2023-01-21T12:53:19.511Z,3.00
2023-01-21T12:56:04.133Z,2.90
2023-01-21T12:58:34.491Z,2.80
2023-01-21T13:01:07.296Z,2.80
2023-01-21T13:03:47.128Z,2.80
2023-01-21T13:06:25.938Z,2.80
2023-01-21T13:09:04.352Z,2.90
2023-01-21T13:11:37.295Z,3.00
2023-01-21T13:14:23.809Z,3.00
2023-01-21T13:16:57.400Z,2.80
2023-01-21T13:19:25.783Z,2.70
2023-01-21T13:22:04.682Z,2.70
2023-01-21T13:24:44.452Z,2.80
2023-01-21T13:27:19.589Z,2.80
2023-01-21T13:29:55.072Z,2.70
2023-01-21T13:32:39.695Z,2.60
2023-01-21T13:35:23.743Z,2.50
2023-01-21T13:38:02.753Z,2.50
2023-01-21T13:40:41.252Z,2.50
2023-01-21T13:43:21.448Z,2.40
2023-01-21T13:46:05.765Z,2.50
2023-01-21T13:48:47.335Z,2.50
2023-01-21T13:51:44.595Z,2.30
2023-01-21T13:54:38.444Z,2.30
2023-01-21T13:57:27.335Z,2.20
2023-01-21T13:59:59.519Z,2.00
2023-01-21T14:02:35.227Z,2.00
2023-01-21T14:05:07.429Z,1.90
2023-01-21T14:07:40.900Z,1.70
2023-01-21T14:10:17.776Z,1.50
2023-01-21T14:13:32.793Z,1.40
2023-01-21T14:16:29.164Z,1.30
2023-01-21T14:19:24.947Z,1.30
2023-01-21T14:22:22.282Z,1.30
2023-01-21T14:25:09.425Z,1.30
2023-01-21T14:27:48.232Z,1.30
2023-01-21T14:30:21.521Z,1.20
2023-01-21T14:32:53.686Z,1.10
2023-01-21T14:35:27.625Z,1.00
2023-01-21T14:38:06.371Z,1.10
2023-01-21T14:40:36.163Z,1.10
2023-01-21T14:43:05.927Z,1.00
2023-01-21T14:45:54.033Z,1.00
2023-01-21T14:48:30.585Z,1.00
2023-01-21T14:51:12.916Z,0.90
2023-01-21T14:53:47.624Z,0.90
2023-01-21T14:56:22.998Z,0.80
2023-01-21T14:58:55.267Z,0.90
2023-01-21T15:01:43.150Z,0.80
2023-01-21T15:04:25.615Z,0.80
2023-01-21T15:06:57.670Z,0.80
2023-01-21T15:09:29.673Z,0.70
2023-01-21T15:12:01.865Z,0.70
2023-01-21T15:14:35.429Z,0.70
2023-01-21T15:17:03.817Z,0.70
2023-01-21T15:19:34.576Z,0.70
2023-01-21T15:22:39.847Z,0.80
2023-01-21T15:25:36.988Z,0.70
2023-01-21T15:28:43.836Z,0.70
2023-01-21T15:31:30.236Z,0.70
2023-01-21T15:34:00.817Z,0.70
2023-01-21T15:36:32.304Z,0.60
2023-01-21T15:39:03.542Z,0.60
2023-01-21T15:41:44.105Z,0.70
2023-01-21T15:44:34.971Z,0.70
2023-01-21T15:47:15.401Z,0.60
2023-01-21T15:49:53.919Z,0.60
2023-01-21T15:52:34.387Z,0.60
2023-01-21T15:55:19.278Z,0.50
2023-01-21T15:57:55.595Z,0.50
2023-01-21T16:00:34.022Z,0.50
2023-01-21T16:03:12.616Z,0.40
2023-01-21T16:05:50.659Z,0.50
2023-01-21T16:08:27.487Z,0.40
2023-01-21T16:11:15.794Z,0.40
2023-01-21T16:13:54.739Z,0.30
2023-01-21T16:16:39.375Z,0.40
2023-01-21T16:19:11.758Z,0.40
2023-01-21T16:21:43.526Z,0.30
2023-01-21T16:24:17.156Z,0.30
2023-01-21T16:26:45.622Z,0.30
2023-01-21T16:29:15.461Z,0.30
2023-01-21T16:31:48.331Z,0.20
2023-01-21T16:34:26.204Z,0.30
2023-01-21T16:36:54.501Z,0.20
2023-01-21T16:39:22.740Z,0.20
2023-01-21T16:42:02.706Z,0.10
2023-01-21T16:44:32.896Z,0.10
2023-01-21T16:47:01.300Z,0.10
2023-01-21T16:49:31.188Z,0.00
2023-01-21T16:52:01.793Z,0.00
2023-01-21T16:54:32.369Z,0.10
2023-01-21T16:57:02.174Z,0.10
2023-01-21T16:59:38.707Z,0.10
2023-01-21T17:02:16.899Z,0.10
2023-01-21T17:04:46.618Z,0.10
2023-01-21T17:07:16.983Z,0.10
2023-01-21T17:09:45.322Z,0.10
2023-01-21T17:12:24.115Z,0.10
2023-01-21T17:14:58.288Z,0.10
2023-01-21T17:17:29.810Z,0.10
2023-01-21T17:19:59.800Z,0.10
2023-01-21T17:22:30.945Z,0.20
2023-01-21T17:25:07.928Z,0.20
2023-01-21T17:27:38.919Z,0.20
2023-01-21T17:30:20.738Z,0.20
2023-01-21T17:32:53.722Z,0.20
2023-01-21T17:35:24.533Z,0.00
2023-01-21T17:37:57.647Z,0.20
2023-01-21T17:40:33.376Z,0.20
2023-01-21T17:43:10.767Z,0.20
2023-01-21T17:45:44.930Z,0.20
2023-01-21T17:48:22.973Z,0.20
2023-01-21T17:50:53.547Z,0.20
2023-01-21T17:53:25.887Z,0.20
2023-01-21T17:55:59.719Z,0.20
2023-01-21T17:58:51.087Z,0.20
2023-01-21T18:01:20.114Z,0.20
2023-01-21T18:03:48.377Z,0.20
2023-01-21T18:06:24.089Z,0.20
2023-01-21T18:08:52.914Z,0.20
2023-01-21T18:11:22.522Z,0.20
2023-01-21T18:13:52.583Z,0.30
2023-01-21T18:16:20.970Z,0.30
2023-01-21T18:18:50.518Z,0.20
2023-01-21T18:21:22.082Z,0.20
2023-01-21T18:23:51.291Z,0.20
2023-01-21T18:26:27.471Z,0.10
2023-01-21T18:28:55.700Z,0.10
2023-01-21T18:31:24.055Z,0.10
2023-01-21T18:33:52.440Z,0.10
2023-01-21T18:36:22.059Z,0.10
2023-01-21T18:38:50.259Z,0.10
2023-01-21T18:41:18.526Z,0.00
2023-01-21T18:43:46.800Z,0.00
2023-01-21T18:46:16.388Z,-0.10
2023-01-21T18:48:44.785Z,0.00
2023-01-21T18:51:14.709Z,-0.10
2023-01-21T18:53:44.386Z,-0.10
2023-01-21T18:56:14.897Z,-0.10
2023-01-21T18:58:43.398Z,-0.20
2023-01-21T19:01:22.481Z,-0.20
2023-01-21T19:03:54.757Z,-0.20
2023-01-21T19:06:24.701Z,-0.30
2023-01-21T19:08:55.271Z,-0.30
2023-01-21T19:11:24.893Z,-0.30
2023-01-21T19:13:53.216Z,-0.30
2023-01-21T19:16:22.897Z,-0.40
2023-01-21T19:18:51.199Z,-0.40
2023-01-21T19:21:19.480Z,-0.40
2023-01-21T19:23:48.022Z,-0.40
2023-01-21T19:26:18.043Z,-0.50
2023-01-21T19:28:46.313Z,-0.50
2023-01-21T19:31:14.613Z,-0.50
2023-01-21T19:33:45.602Z,-0.50
2023-01-21T19:36:16.535Z,-0.50
2023-01-21T19:38:51.233Z,-0.50
2023-01-21T19:41:20.898Z,-0.60
2023-01-21T19:43:49.249Z,-0.60
2023-01-21T19:46:18.683Z,-0.60
2023-01-21T19:48:50.055Z,-0.50
2023-01-21T19:51:18.370Z,-0.60
2023-01-21T19:53:46.617Z,-0.60
2023-01-21T19:56:17.179Z,-0.60
2023-01-21T19:58:48.521Z,-0.60
2023-01-21T20:01:16.804Z,-0.70
2023-01-21T20:03:58.457Z,-0.70
2023-01-21T20:06:28.921Z,-0.70
2023-01-21T20:08:57.137Z,-0.70
2023-01-21T20:11:25.603Z,-0.70
2023-01-21T20:13:55.156Z,-0.70
2023-01-21T20:16:26.339Z,-0.70
2023-01-21T20:18:56.312Z,-0.70
2023-01-21T20:21:24.659Z,-0.70
2023-01-21T20:23:52.973Z,-0.70
2023-01-21T20:26:25.788Z,-0.70
2023-01-21T20:28:55.625Z,-0.70
2023-01-21T20:31:24.010Z,-0.70
2023-01-21T20:33:52.349Z,-0.70
2023-01-21T20:36:23.082Z,-0.70
2023-01-21T20:38:51.676Z,-0.70
2023-01-21T20:41:20.082Z,-0.70
2023-01-21T20:43:48.242Z,-0.60
2023-01-21T20:46:21.625Z,-0.60
2023-01-21T20:48:51.679Z,-0.70
2023-01-21T20:51:20.862Z,-0.60
2023-01-21T20:53:49.093Z,-0.60
2023-01-21T20:56:20.792Z,-0.60
2023-01-21T20:58:48.931Z,-0.50
2023-01-21T21:01:20.647Z,-0.40
2023-01-21T21:03:49.092Z,-0.50
2023-01-21T21:06:19.927Z,-0.50
2023-01-21T21:08:48.964Z,-0.50
2023-01-21T21:11:18.268Z,-0.50
2023-01-21T21:13:49.317Z,-0.50
2023-01-21T21:16:24.410Z,-0.50
2023-01-21T21:18:52.975Z,-0.40
2023-01-21T21:21:23.703Z,-0.40
2023-01-21T21:23:53.049Z,-0.40
2023-01-21T21:26:23.472Z,-0.30
2023-01-21T21:28:54.758Z,-0.30
2023-01-21T21:31:26.000Z,-0.40
2023-01-21T21:33:54.545Z,-0.40
2023-01-21T21:36:24.634Z,-0.50
2023-01-21T21:38:55.857Z,-0.50
2023-01-21T21:41:43.563Z,-0.50
2023-01-21T21:44:12.672Z,-0.50
2023-01-21T21:46:59.945Z,-0.50
2023-01-21T21:49:28.808Z,-0.50
2023-01-21T21:51:57.473Z,-0.50
2023-01-21T21:54:25.709Z,-0.50
2023-01-21T21:56:53.889Z,-0.50
2023-01-21T21:59:22.057Z,-0.40
2023-01-21T22:01:51.721Z,-0.30
2023-01-21T22:04:21.323Z,-0.40
2023-01-21T22:06:49.589Z,-0.40
2023-01-21T22:09:17.962Z,-0.30
2023-01-21T22:11:46.266Z,-0.40
2023-01-21T22:14:14.548Z,-0.30
2023-01-21T22:16:42.881Z,-0.40
2023-01-21T22:19:13.277Z,-0.30
2023-01-21T22:21:41.604Z,-0.30
2023-01-21T22:24:10.658Z,-0.30
2023-01-21T22:26:39.393Z,-0.20
2023-01-21T22:29:07.647Z,-0.20
2023-01-21T22:31:36.210Z,-0.30
2023-01-21T22:34:05.270Z,-0.30
2023-01-21T22:36:34.913Z,-0.30
2023-01-21T22:39:03.225Z,-0.30
2023-01-21T22:41:31.542Z,-0.30
2023-01-21T22:43:59.755Z,-0.30
2023-01-21T22:46:30.501Z,-0.30
2023-01-21T22:48:58.880Z,-0.30
2023-01-21T22:51:29.102Z,-0.30
2023-01-21T22:54:00.215Z,-0.30
2023-01-21T22:56:49.695Z,-0.30
2023-01-21T22:59:16.594Z,-0.30
2023-01-21T23:01:44.894Z,-0.40
2023-01-21T23:04:13.312Z,-0.40
2023-01-21T23:06:44.636Z,-0.50
2023-01-21T23:09:16.432Z,-0.50
2023-01-21T23:11:45.143Z,-0.40
2023-01-21T23:14:13.647Z,-0.30
2023-01-21T23:16:41.914Z,-0.40
2023-01-21T23:19:10.114Z,-0.30
2023-01-21T23:21:38.536Z,-0.30
2023-01-21T23:24:07.769Z,-0.50
2023-01-21T23:26:37.970Z,-0.40
2023-01-21T23:29:06.198Z,-0.40
2023-01-21T23:31:35.300Z,-0.40
2023-01-21T23:34:04.383Z,-0.30
2023-01-21T23:36:32.622Z,-0.30
2023-01-21T23:39:00.864Z,-0.30
2023-01-21T23:41:29.112Z,-0.30
2023-01-21T23:44:01.602Z,-0.30
2023-01-21T23:46:30.196Z,-0.30
2023-01-21T23:48:58.486Z,-0.40
2023-01-21T23:51:26.725Z,-0.40
2023-01-21T23:53:54.969Z,-0.40
2023-01-21T23:56:25.058Z,-0.50
2023-01-21T23:58:53.560Z,-0.50
